Time;durP1;ratioP1;P1;durP2;ratioP2;P2;SDS_P1;SDS_P2;PMS_P1;PMS_P2;Temp;Humidity;BMP_temperature;BMP_pressure;BME280_temperature;BME280_humidity;BME280_pressure;Samples;Min_cycle;Max_cycle;Signal;HPM_P1;HPM_P2
2023/09/26 00:02:09;;;;;;;5.80;3.20;;;;;;;;;;112762;210;43063;-37
2023/09/26 00:04:44;;;;;;;5.20;3.10;;;;;;;;;;112720;209;43203;-37
2023/09/26 00:07:19;;;;;;;5.60;3.30;;;;;;;;;;112781;210;38815;-37
2023/09/26 00:09:55;;;;;;;5.40;3.50;;;;;;;;;;112750;210;39573;-38
2023/09/26 00:12:30;;;;;;;5.00;3.10;;;;;;;;;;112728;210;43010;-37
2023/09/26 00:15:06;;;;;;;5.20;3.20;;;;;;;;;;112761;209;42783;-37
2023/09/26 00:17:40;;;;;;;5.30;3.10;;;;;;;;;;112809;210;38708;-37
2023/09/26 00:20:17;;;;;;;5.10;3.20;;;;;;;;;;112768;210;39890;-37
2023/09/26 00:22:51;;;;;;;5.10;3.30;;;;;;;;;;112803;210;42795;-37
2023/09/26 00:25:26;;;;;;;5.10;3.00;;;;;;;;;;112714;209;43316;-37
2023/09/26 00:28:00;;;;;;;5.80;3.20;;;;;;;;;;112771;210;39088;-37
2023/09/26 00:30:34;;;;;;;5.70;3.30;;;;;;;;;;112755;210;41134;-37
2023/09/26 00:33:10;;;;;;;5.60;3.30;;;;;;;;;;112753;210;43237;-37
2023/09/26 00:35:43;;;;;;;4.90;3.20;;;;;;;;;;112693;209;43376;-37
2023/09/26 00:38:17;;;;;;;5.40;3.20;;;;;;;;;;112727;210;38884;-37
2023/09/26 00:40:51;;;;;;;5.40;3.20;;;;;;;;;;112808;210;40873;-37
2023/09/26 00:43:26;;;;;;;4.80;3.10;;;;;;;;;;112825;210;42852;-37
2023/09/26 00:46:03;;;;;;;5.00;3.00;;;;;;;;;;112762;209;42346;-36
2023/09/26 00:48:41;;;;;;;5.20;3.00;;;;;;;;;;112755;210;38931;-37
2023/09/26 00:51:15;;;;;;;5.30;3.30;;;;;;;;;;112789;210;39901;-36
2023/09/26 00:53:49;;;;;;;4.70;3.10;;;;;;;;;;112759;210;42811;-37
2023/09/26 00:56:23;;;;;;;5.30;3.10;;;;;;;;;;112725;209;42330;-37
2023/09/26 00:58:58;;;;;;;5.00;3.00;;;;;;;;;;112769;210;38794;-37
2023/09/26 01:01:34;;;;;;;4.70;3.10;;;;;;;;;;112696;210;39238;-37
2023/09/26 01:04:10;;;;;;;4.80;3.20;;;;;;;;;;112730;210;42909;-37
2023/09/26 01:06:46;;;;;;;5.30;3.30;;;;;;;;;;112735;209;42210;-37
2023/09/26 01:09:23;;;;;;;4.80;3.10;;;;;;;;;;112745;210;39296;-37
2023/09/26 01:11:58;;;;;;;4.50;3.00;;;;;;;;;;112776;210;39763;-37
2023/09/26 01:14:33;;;;;;;5.30;3.10;;;;;;;;;;112803;210;43376;-37
2023/09/26 01:17:07;;;;;;;5.00;3.10;;;;;;;;;;112760;209;43240;-37
2023/09/26 01:19:43;;;;;;;4.90;3.00;;;;;;;;;;112778;209;38847;-37
2023/09/26 01:22:21;;;;;;;5.50;3.40;;;;;;;;;;112824;210;39752;-37
2023/09/26 01:24:57;;;;;;;4.80;3.00;;;;;;;;;;112768;210;43001;-37
2023/09/26 01:27:31;;;;;;;4.80;3.20;;;;;;;;;;112752;209;47973;-37
2023/09/26 01:30:07;;;;;;;5.10;2.90;;;;;;;;;;112765;210;38644;-37
2023/09/26 01:32:44;;;;;;;4.60;3.10;;;;;;;;;;112766;210;39720;-37
2023/09/26 01:35:20;;;;;;;4.50;2.90;;;;;;;;;;112757;210;43204;-37
2023/09/26 01:37:54;;;;;;;5.00;3.10;;;;;;;;;;112739;209;48029;-37
2023/09/26 01:40:29;;;;;;;4.60;2.90;;;;;;;;;;112797;210;38827;-36
2023/09/26 01:43:03;;;;;;;4.50;2.90;;;;;;;;;;112845;209;39286;-37
2023/09/26 01:45:37;;;;;;;5.40;2.90;;;;;;;;;;112821;210;43036;-37
2023/09/26 01:48:12;;;;;;;4.80;3.30;;;;;;;;;;112738;209;47727;-37
2023/09/26 01:50:48;;;;;;;4.70;3.00;;;;;;;;;;112745;210;38737;-37
2023/09/26 01:53:21;;;;;;;4.60;3.00;;;;;;;;;;112742;209;39919;-37
2023/09/26 01:56:00;;;;;;;4.70;2.70;;;;;;;;;;112753;209;42764;-37
2023/09/26 01:58:35;;;;;;;5.40;3.20;;;;;;;;;;112855;210;47919;-37
2023/09/26 02:01:09;;;;;;;4.70;3.00;;;;;;;;;;112766;209;38972;-37
2023/09/26 02:03:47;;;;;;;5.00;3.00;;;;;;;;;;112723;210;39786;-37
2023/09/26 02:06:22;;;;;;;4.70;3.10;;;;;;;;;;112708;210;42847;-37
2023/09/26 02:08:57;;;;;;;4.90;3.00;;;;;;;;;;112731;209;42043;-37
2023/09/26 02:11:32;;;;;;;4.50;2.90;;;;;;;;;;112731;209;38917;-37
2023/09/26 02:14:07;;;;;;;5.00;3.00;;;;;;;;;;112749;210;39757;-37
2023/09/26 02:16:42;;;;;;;4.80;3.10;;;;;;;;;;112624;209;175555;-37
2023/09/26 02:19:16;;;;;;;5.30;3.20;;;;;;;;;;112772;210;48178;-36
2023/09/26 02:21:50;;;;;;;4.80;3.10;;;;;;;;;;112800;210;38611;-36
2023/09/26 02:24:23;;;;;;;4.80;3.10;;;;;;;;;;112776;210;39847;-36
2023/09/26 02:27:00;;;;;;;5.10;3.10;;;;;;;;;;112728;209;43960;-37
2023/09/26 02:29:35;;;;;;;4.70;3.10;;;;;;;;;;112712;209;48182;-37
2023/09/26 02:32:09;;;;;;;4.90;3.10;;;;;;;;;;112734;209;38733;-37
2023/09/26 02:34:44;;;;;;;4.40;3.00;;;;;;;;;;112733;210;39444;-37
2023/09/26 02:37:19;;;;;;;4.90;3.20;;;;;;;;;;112683;209;42857;-37
2023/09/26 02:40:05;;;;;;;5.20;2.90;;;;;;;;;;112747;210;48175;-37
2023/09/26 02:42:43;;;;;;;5.20;3.40;;;;;;;;;;112592;210;39978;-37
2023/09/26 02:45:17;;;;;;;5.00;3.20;;;;;;;;;;112260;210;335990;-37
2023/09/26 02:47:58;;;;;;;4.70;2.80;;;;;;;;;;112367;209;42832;-37
2023/09/26 02:50:34;;;;;;;4.90;3.10;;;;;;;;;;112609;210;42339;-37
2023/09/26 02:53:08;;;;;;;5.40;3.30;;;;;;;;;;112521;210;38701;-37
2023/09/26 02:55:45;;;;;;;5.00;3.30;;;;;;;;;;112578;210;39904;-37
2023/09/26 02:58:21;;;;;;;6.30;3.30;;;;;;;;;;112533;209;42809;-37
2023/09/26 03:00:55;;;;;;;4.60;3.00;;;;;;;;;;112551;210;42296;-37
2023/09/26 03:03:31;;;;;;;4.80;3.20;;;;;;;;;;112531;210;38878;-37
2023/09/26 03:06:08;;;;;;;5.00;3.30;;;;;;;;;;112505;210;39663;-37
2023/09/26 03:08:44;;;;;;;4.90;3.20;;;;;;;;;;112541;209;42993;-37
2023/09/26 03:11:19;;;;;;;5.10;3.30;;;;;;;;;;112540;210;42342;-37
2023/09/26 03:13:55;;;;;;;5.30;3.10;;;;;;;;;;112520;210;38434;-37
2023/09/26 03:16:32;;;;;;;4.90;2.90;;;;;;;;;;112513;210;39582;-37
2023/09/26 03:19:09;;;;;;;5.30;3.10;;;;;;;;;;112454;209;42941;-37
2023/09/26 03:21:43;;;;;;;5.60;3.20;;;;;;;;;;112553;210;43204;-37
2023/09/26 03:24:18;;;;;;;5.60;3.30;;;;;;;;;;112560;210;38820;-35
2023/09/26 03:26:51;;;;;;;5.30;3.30;;;;;;;;;;112545;210;39616;-35
2023/09/26 03:29:27;;;;;;;6.10;3.20;;;;;;;;;;112504;209;42928;-35
2023/09/26 03:32:01;;;;;;;5.30;3.20;;;;;;;;;;112502;210;42022;-35
2023/09/26 03:34:36;;;;;;;5.20;3.20;;;;;;;;;;112528;210;39990;-35
2023/09/26 03:37:10;;;;;;;4.90;3.20;;;;;;;;;;112523;210;39660;-35
2023/09/26 03:39:49;;;;;;;4.90;3.30;;;;;;;;;;112464;209;44203;-35
2023/09/26 03:42:22;;;;;;;5.40;3.40;;;;;;;;;;112529;210;42097;-35
2023/09/26 03:44:57;;;;;;;6.00;3.30;;;;;;;;;;112553;210;38765;-35
2023/09/26 03:47:30;;;;;;;5.20;3.10;;;;;;;;;;112542;210;39610;-35
2023/09/26 03:50:05;;;;;;;5.30;3.40;;;;;;;;;;112572;209;44184;-35
2023/09/26 03:52:38;;;;;;;4.90;3.20;;;;;;;;;;112644;210;42040;-35
2023/09/26 03:55:12;;;;;;;5.20;3.40;;;;;;;;;;112644;210;38722;-35
2023/09/26 03:57:46;;;;;;;4.40;2.90;;;;;;;;;;112604;210;40980;-35
2023/09/26 04:00:25;;;;;;;4.40;3.20;;;;;;;;;;112605;209;44513;-35
2023/09/26 04:03:02;;;;;;;5.30;3.30;;;;;;;;;;112598;210;43680;-35
2023/09/26 04:05:36;;;;;;;5.60;3.40;;;;;;;;;;112597;210;38716;-35
2023/09/26 04:08:10;;;;;;;5.50;3.30;;;;;;;;;;112605;210;40220;-35
2023/09/26 04:10:43;;;;;;;5.10;3.20;;;;;;;;;;112601;209;42749;-35
2023/09/26 04:13:20;;;;;;;5.50;3.30;;;;;;;;;;112609;210;42523;-35
2023/09/26 04:15:56;;;;;;;5.80;3.00;;;;;;;;;;112664;209;38898;-35
2023/09/26 04:18:35;;;;;;;5.90;3.30;;;;;;;;;;112605;210;39756;-35
2023/09/26 04:21:10;;;;;;;5.40;3.30;;;;;;;;;;112597;209;42530;-35
2023/09/26 04:23:48;;;;;;;5.00;3.20;;;;;;;;;;112612;210;41994;-35
2023/09/26 04:26:25;;;;;;;4.90;3.10;;;;;;;;;;112635;210;38697;-35
2023/09/26 04:29:01;;;;;;;4.70;3.00;;;;;;;;;;112642;210;39822;-35
2023/09/26 04:31:38;;;;;;;5.10;3.20;;;;;;;;;;112576;209;43040;-35
2023/09/26 04:34:12;;;;;;;4.60;3.30;;;;;;;;;;112600;210;42151;-34
2023/09/26 04:36:46;;;;;;;5.00;3.20;;;;;;;;;;112543;209;38816;-35
2023/09/26 04:39:20;;;;;;;5.00;3.20;;;;;;;;;;112553;210;39542;-35
2023/09/26 04:41:56;;;;;;;5.20;3.40;;;;;;;;;;112588;209;42833;-35
2023/09/26 04:44:31;;;;;;;5.00;3.10;;;;;;;;;;112598;210;42233;-35
2023/09/26 04:47:06;;;;;;;5.20;3.40;;;;;;;;;;112595;210;38434;-35
2023/09/26 04:49:41;;;;;;;5.20;3.20;;;;;;;;;;112582;209;39554;-35
2023/09/26 04:52:16;;;;;;;4.80;3.20;;;;;;;;;;112538;209;43961;-35
2023/09/26 04:54:52;;;;;;;5.10;3.10;;;;;;;;;;112482;211;41834;-36
2023/09/26 04:57:28;;;;;;;6.20;3.30;;;;;;;;;;112401;211;38689;-35
2023/09/26 05:00:08;;;;;;;5.00;3.10;;;;;;;;;;112445;211;39806;-35
2023/09/26 05:02:41;;;;;;;4.70;3.20;;;;;;;;;;112504;211;48762;-36
2023/09/26 05:05:16;;;;;;;5.20;3.40;;;;;;;;;;112417;211;42361;-35
2023/09/26 05:07:54;;;;;;;5.40;3.40;;;;;;;;;;112403;211;38843;-35
2023/09/26 05:10:29;;;;;;;4.90;3.00;;;;;;;;;;112378;211;39738;-35
2023/09/26 05:13:02;;;;;;;5.00;3.40;;;;;;;;;;112376;211;48671;-35
2023/09/26 05:15:39;;;;;;;4.90;3.20;;;;;;;;;;112408;211;42055;-35
2023/09/26 05:18:15;;;;;;;4.60;3.20;;;;;;;;;;112475;211;38633;-35
2023/09/26 05:20:49;;;;;;;4.40;2.70;;;;;;;;;;112407;211;39301;-35
2023/09/26 05:23:26;;;;;;;5.10;3.30;;;;;;;;;;112393;211;43282;-36
2023/09/26 05:26:06;;;;;;;4.80;3.30;;;;;;;;;;112380;211;42017;-36
2023/09/26 05:28:45;;;;;;;5.20;3.10;;;;;;;;;;112376;211;38738;-35
2023/09/26 05:31:19;;;;;;;4.80;3.10;;;;;;;;;;112364;211;40010;-35
2023/09/26 05:33:58;;;;;;;5.60;3.00;;;;;;;;;;112441;211;42883;-35
2023/09/26 05:36:34;;;;;;;4.70;3.20;;;;;;;;;;112411;211;42475;-35
2023/09/26 05:39:11;;;;;;;4.80;3.10;;;;;;;;;;112431;211;38686;-35
2023/09/26 05:41:46;;;;;;;5.20;3.40;;;;;;;;;;112357;211;40203;-35
2023/09/26 05:44:20;;;;;;;5.00;3.20;;;;;;;;;;112411;211;43100;-36
2023/09/26 05:46:58;;;;;;;4.50;3.00;;;;;;;;;;112384;211;42347;-35
2023/09/26 05:49:32;;;;;;;6.00;3.50;;;;;;;;;;112418;211;38985;-35
2023/09/26 05:52:11;;;;;;;5.60;3.50;;;;;;;;;;112384;211;39736;-35
2023/09/26 05:54:48;;;;;;;5.30;3.10;;;;;;;;;;111891;209;894394;-35
2023/09/26 05:57:22;;;;;;;4.70;3.20;;;;;;;;;;112613;210;42181;-35
2023/09/26 06:00:01;;;;;;;5.20;3.30;;;;;;;;;;112563;209;39290;-36
2023/09/26 06:02:38;;;;;;;5.10;2.90;;;;;;;;;;112507;209;39647;-36
2023/09/26 06:05:14;;;;;;;5.30;3.20;;;;;;;;;;112607;209;42822;-35
2023/09/26 06:07:51;;;;;;;5.40;3.20;;;;;;;;;;112592;209;42361;-35
2023/09/26 06:10:26;;;;;;;5.40;3.20;;;;;;;;;;112580;210;38916;-35
2023/09/26 06:13:02;;;;;;;5.40;3.20;;;;;;;;;;112590;209;39891;-35
2023/09/26 06:15:35;;;;;;;5.30;3.60;;;;;;;;;;112516;210;175568;-35
2023/09/26 06:18:13;;;;;;;5.60;3.30;;;;;;;;;;112614;209;42011;-35
2023/09/26 06:20:49;;;;;;;5.50;3.30;;;;;;;;;;112599;209;38705;-35
2023/09/26 06:23:25;;;;;;;5.50;3.40;;;;;;;;;;112565;209;39932;-36
2023/09/26 06:26:03;;;;;;;6.10;3.40;;;;;;;;;;112568;210;42783;-36
2023/09/26 06:28:38;;;;;;;5.60;3.30;;;;;;;;;;112610;209;42155;-36
2023/09/26 06:31:16;;;;;;;6.30;3.50;;;;;;;;;;112606;209;38862;-36
2023/09/26 06:33:52;;;;;;;4.70;3.40;;;;;;;;;;112568;209;39947;-35
2023/09/26 06:36:31;;;;;;;6.40;3.80;;;;;;;;;;112631;209;42916;-35
2023/09/26 06:39:06;;;;;;;7.70;3.70;;;;;;;;;;112545;210;42282;-35
2023/09/26 06:41:42;;;;;;;6.00;3.30;;;;;;;;;;112576;210;38871;-35
2023/09/26 06:44:19;;;;;;;6.40;3.50;;;;;;;;;;112538;209;39949;-35
2023/09/26 06:46:55;;;;;;;6.10;3.70;;;;;;;;;;112582;210;42683;-36
2023/09/26 06:49:31;;;;;;;5.60;3.30;;;;;;;;;;112533;210;42207;-36
2023/09/26 06:52:07;;;;;;;8.10;4.10;;;;;;;;;;112564;210;38711;-36
2023/09/26 06:54:41;;;;;;;5.90;3.50;;;;;;;;;;112302;210;39726;-36
2023/09/26 06:57:18;;;;;;;5.90;3.70;;;;;;;;;;112502;210;42822;-36
2023/09/26 06:59:55;;;;;;;6.90;4.00;;;;;;;;;;112372;210;42231;-36
2023/09/26 07:02:29;;;;;;;6.80;3.70;;;;;;;;;;112627;210;38655;-37
2023/09/26 07:05:05;;;;;;;6.30;3.50;;;;;;;;;;112445;209;39555;-35
2023/09/26 07:07:39;;;;;;;6.20;3.80;;;;;;;;;;112668;210;42787;-36
2023/09/26 07:10:14;;;;;;;5.80;3.80;;;;;;;;;;112567;210;42121;-37
2023/09/26 07:12:51;;;;;;;7.40;3.80;;;;;;;;;;112526;210;39097;-41
2023/09/26 07:15:31;;;;;;;6.20;3.90;;;;;;;;;;112474;210;40738;-40
2023/09/26 07:18:09;;;;;;;7.00;3.60;;;;;;;;;;112520;210;42771;-37
2023/09/26 07:20:48;;;;;;;6.10;3.90;;;;;;;;;;112525;210;43335;-40
2023/09/26 07:23:22;;;;;;;6.20;3.80;;;;;;;;;;112564;209;38715;-37
2023/09/26 07:26:07;;;;;;;5.50;3.80;;;;;;;;;;112588;210;46088;-41
2023/09/26 07:28:41;;;;;;;6.60;4.00;;;;;;;;;;112597;210;43206;-37
2023/09/26 07:31:20;;;;;;;6.90;4.00;;;;;;;;;;112618;210;42240;-38
2023/09/26 07:33:54;;;;;;;6.90;4.20;;;;;;;;;;112560;209;38732;-36
2023/09/26 07:36:28;;;;;;;7.50;4.30;;;;;;;;;;112628;210;40158;-36
2023/09/26 07:39:03;;;;;;;7.60;4.40;;;;;;;;;;112562;210;42974;-36
2023/09/26 07:41:37;;;;;;;7.20;4.50;;;;;;;;;;112588;210;42282;-36
2023/09/26 07:44:12;;;;;;;6.60;4.40;;;;;;;;;;112561;209;38796;-37
2023/09/26 07:46:46;;;;;;;7.50;4.90;;;;;;;;;;112578;210;39373;-36
2023/09/26 07:49:21;;;;;;;8.00;4.40;;;;;;;;;;112549;210;43033;-36
2023/09/26 07:51:55;;;;;;;7.20;4.70;;;;;;;;;;112577;210;42105;-34
2023/09/26 07:54:29;;;;;;;6.90;4.70;;;;;;;;;;112556;209;38754;-36
2023/09/26 07:57:03;;;;;;;7.00;4.70;;;;;;;;;;112545;210;41055;-35
2023/09/26 07:59:38;;;;;;;6.70;5.10;;;;;;;;;;112530;210;44053;-35
2023/09/26 08:02:12;;;;;;;8.50;5.40;;;;;;;;;;112569;210;42107;-35
2023/09/26 08:04:47;;;;;;;7.30;5.10;;;;;;;;;;112513;209;39074;-36
2023/09/26 08:07:21;;;;;;;8.70;5.40;;;;;;;;;;112610;210;40704;-36
2023/09/26 08:10:00;;;;;;;7.30;5.10;;;;;;;;;;112569;210;42794;-35
2023/09/26 08:12:35;;;;;;;8.20;5.30;;;;;;;;;;112543;210;42184;-36
2023/09/26 08:15:11;;;;;;;8.30;5.50;;;;;;;;;;112540;209;39072;-35
2023/09/26 08:17:46;;;;;;;7.70;5.50;;;;;;;;;;112586;210;39779;-37
2023/09/26 08:20:24;;;;;;;9.00;6.00;;;;;;;;;;112535;210;44219;-37
2023/09/26 08:22:59;;;;;;;9.50;5.30;;;;;;;;;;112558;210;42147;-34
2023/09/26 08:25:34;;;;;;;10.00;5.40;;;;;;;;;;112514;209;39889;-36
2023/09/26 08:28:10;;;;;;;9.40;5.90;;;;;;;;;;112534;210;39764;-35
2023/09/26 08:30:45;;;;;;;8.10;5.90;;;;;;;;;;112608;210;42972;-36
2023/09/26 08:33:21;;;;;;;8.10;5.60;;;;;;;;;;112560;210;42402;-36
2023/09/26 08:35:57;;;;;;;8.80;5.90;;;;;;;;;;112553;209;39262;-37
2023/09/26 08:38:35;;;;;;;8.20;5.70;;;;;;;;;;112570;210;41136;-36
2023/09/26 08:41:13;;;;;;;8.20;6.10;;;;;;;;;;112508;210;43090;-36
2023/09/26 08:43:48;;;;;;;8.60;5.90;;;;;;;;;;112546;210;42015;-35
2023/09/26 08:46:23;;;;;;;8.30;6.40;;;;;;;;;;112533;209;38502;-35
2023/09/26 08:48:58;;;;;;;8.00;6.30;;;;;;;;;;112528;210;39938;-39
2023/09/26 08:51:33;;;;;;;10.00;6.30;;;;;;;;;;112511;210;42927;-34
2023/09/26 08:54:08;;;;;;;8.60;5.90;;;;;;;;;;112532;210;42309;-35
2023/09/26 08:56:47;;;;;;;9.70;6.80;;;;;;;;;;112497;209;38559;-34
2023/09/26 08:59:24;;;;;;;9.80;6.50;;;;;;;;;;112541;210;39624;-33
2023/09/26 09:01:59;;;;;;;9.10;6.70;;;;;;;;;;112566;210;43367;-33
2023/09/26 09:04:34;;;;;;;8.40;6.60;;;;;;;;;;111897;210;892621;-34
2023/09/26 09:07:11;;;;;;;9.10;6.60;;;;;;;;;;112501;209;38881;-34
2023/09/26 09:10:10;;;;;;;8.70;6.70;;;;;;;;;;112592;210;40599;-34
2023/09/26 09:12:47;;;;;;;8.40;6.80;;;;;;;;;;112521;210;43124;-38
2023/09/26 09:15:28;;;;;;;8.30;6.70;;;;;;;;;;112340;210;43524;-38
2023/09/26 09:18:02;;;;;;;9.60;6.80;;;;;;;;;;112212;209;197539;-38
2023/09/26 09:20:38;;;;;;;8.60;6.80;;;;;;;;;;112540;210;39620;-38
2023/09/26 09:23:12;;;;;;;9.30;7.10;;;;;;;;;;112441;210;42825;-38
2023/09/26 09:25:50;;;;;;;9.20;7.50;;;;;;;;;;112565;210;42148;-38
2023/09/26 09:28:24;;;;;;;9.30;7.20;;;;;;;;;;112552;210;44388;-38
2023/09/26 09:30:59;;;;;;;9.90;7.70;;;;;;;;;;112575;210;40142;-38
2023/09/26 09:33:38;;;;;;;10.00;7.60;;;;;;;;;;112590;210;43191;-38
2023/09/26 09:36:16;;;;;;;9.40;7.40;;;;;;;;;;112604;209;42269;-39
2023/09/26 09:38:52;;;;;;;10.30;8.20;;;;;;;;;;112534;210;45323;-38
2023/09/26 09:41:30;;;;;;;12.60;8.50;;;;;;;;;;112595;210;39621;-40
2023/09/26 09:44:09;;;;;;;9.70;7.80;;;;;;;;;;112608;210;42996;-38
2023/09/26 09:46:45;;;;;;;10.30;8.40;;;;;;;;;;112552;209;42236;-39
2023/09/26 09:49:24;;;;;;;11.30;8.30;;;;;;;;;;112597;210;38450;-38
2023/09/26 09:52:04;;;;;;;10.00;8.40;;;;;;;;;;112583;209;39665;-38
2023/09/26 09:54:45;;;;;;;9.80;8.10;;;;;;;;;;112564;210;44046;-38
2023/09/26 09:57:24;;;;;;;11.20;8.50;;;;;;;;;;112573;209;43362;-38
2023/09/26 10:00:00;;;;;;;10.40;8.70;;;;;;;;;;112558;210;40266;-38
2023/09/26 10:02:36;;;;;;;10.20;8.50;;;;;;;;;;112557;209;40214;-38
2023/09/26 10:05:14;;;;;;;10.20;8.20;;;;;;;;;;112603;210;42873;-38
2023/09/26 10:07:50;;;;;;;10.30;8.40;;;;;;;;;;112545;209;43349;-38
2023/09/26 10:10:26;;;;;;;10.50;8.80;;;;;;;;;;112639;210;38762;-38
2023/09/26 10:13:04;;;;;;;10.70;9.10;;;;;;;;;;112499;210;175596;-38
2023/09/26 10:16:11;;;;;;;12.70;9.20;;;;;;;;;;112580;209;42803;-38
2023/09/26 10:18:52;;;;;;;10.30;9.20;;;;;;;;;;112557;209;42223;-38
2023/09/26 10:21:32;;;;;;;10.70;8.80;;;;;;;;;;112603;210;38692;-38
2023/09/26 10:24:31;;;;;;;10.50;8.70;;;;;;;;;;112643;209;39342;-38
2023/09/26 10:27:12;;;;;;;10.20;8.80;;;;;;;;;;112595;210;43116;-38
2023/09/26 10:30:05;;;;;;;10.80;8.80;;;;;;;;;;112518;209;47738;-38
2023/09/26 10:32:42;;;;;;;10.50;8.70;;;;;;;;;;112603;210;38459;-38
2023/09/26 10:35:32;;;;;;;10.90;9.50;;;;;;;;;;112609;209;40880;-38
2023/09/26 10:38:18;;;;;;;11.30;9.70;;;;;;;;;;112553;209;42887;-38
2023/09/26 10:40:52;;;;;;;10.90;9.70;;;;;;;;;;112582;210;42103;-39
2023/09/26 10:43:28;;;;;;;11.90;9.50;;;;;;;;;;112617;209;38747;-38
2023/09/26 10:46:07;;;;;;;12.20;9.20;;;;;;;;;;112246;210;349503;-38
2023/09/26 10:48:43;;;;;;;11.40;9.30;;;;;;;;;;112454;209;42799;-38
2023/09/26 10:51:22;;;;;;;10.70;9.50;;;;;;;;;;112586;210;43406;-38
2023/09/26 10:53:59;;;;;;;11.90;9.70;;;;;;;;;;112558;210;38930;-38
2023/09/26 10:56:38;;;;;;;12.20;9.80;;;;;;;;;;112499;210;39539;-38
2023/09/26 10:59:14;;;;;;;11.60;10.10;;;;;;;;;;112532;209;42827;-38
2023/09/26 11:01:49;;;;;;;11.20;9.70;;;;;;;;;;112567;210;42247;-38
2023/09/26 11:04:23;;;;;;;11.20;10.00;;;;;;;;;;112571;210;39053;-38
2023/09/26 11:06:58;;;;;;;11.00;9.50;;;;;;;;;;112565;210;39625;-38
2023/09/26 11:09:33;;;;;;;11.70;9.80;;;;;;;;;;112506;209;43183;-38
2023/09/26 11:12:09;;;;;;;11.70;9.90;;;;;;;;;;112493;210;42360;-38
2023/09/26 11:14:47;;;;;;;11.90;10.10;;;;;;;;;;112539;210;38685;-38
2023/09/26 11:17:23;;;;;;;12.70;11.00;;;;;;;;;;112523;210;39839;-38
2023/09/26 11:20:05;;;;;;;11.70;10.00;;;;;;;;;;112478;209;42816;-38
2023/09/26 11:22:51;;;;;;;12.40;10.30;;;;;;;;;;112478;210;42199;-38
2023/09/26 11:25:26;;;;;;;12.10;10.50;;;;;;;;;;112548;210;38700;-38
2023/09/26 11:28:02;;;;;;;12.40;10.50;;;;;;;;;;112512;210;39821;-38
2023/09/26 11:30:38;;;;;;;12.30;10.90;;;;;;;;;;112534;209;42487;-38
2023/09/26 11:33:15;;;;;;;12.20;10.90;;;;;;;;;;112534;210;42267;-38
2023/09/26 11:35:50;;;;;;;12.10;10.50;;;;;;;;;;112535;210;39085;-39
2023/09/26 11:38:25;;;;;;;12.70;10.70;;;;;;;;;;112511;210;39805;-38
2023/09/26 11:41:00;;;;;;;14.00;11.30;;;;;;;;;;112499;209;42780;-39
2023/09/26 11:43:47;;;;;;;12.60;10.80;;;;;;;;;;112502;210;42112;-38
2023/09/26 11:46:21;;;;;;;12.90;11.20;;;;;;;;;;112499;210;38940;-38
2023/09/26 11:48:57;;;;;;;12.80;11.00;;;;;;;;;;112563;210;40256;-38
2023/09/26 11:51:35;;;;;;;12.50;10.90;;;;;;;;;;112513;209;42845;-38
2023/09/26 11:54:10;;;;;;;12.90;11.50;;;;;;;;;;112489;210;42719;-39
2023/09/26 11:56:47;;;;;;;13.30;11.60;;;;;;;;;;112579;210;38947;-38
2023/09/26 11:59:22;;;;;;;13.10;11.50;;;;;;;;;;112574;210;39716;-38
2023/09/26 12:01:58;;;;;;;13.00;11.10;;;;;;;;;;112522;210;48556;-38
2023/09/26 12:04:35;;;;;;;12.60;11.20;;;;;;;;;;112527;210;41932;-38
2023/09/26 12:07:10;;;;;;;12.80;11.30;;;;;;;;;;112526;209;38698;-38
2023/09/26 12:09:47;;;;;;;12.80;11.50;;;;;;;;;;112495;209;39902;-38
2023/09/26 12:12:22;;;;;;;14.40;12.00;;;;;;;;;;112533;210;50532;-38
2023/09/26 12:15:20;;;;;;;13.30;11.60;;;;;;;;;;112537;210;42264;-38
2023/09/26 12:17:59;;;;;;;13.50;11.60;;;;;;;;;;112629;210;38905;-38
2023/09/26 12:20:35;;;;;;;13.40;12.00;;;;;;;;;;112590;209;39641;-38
2023/09/26 12:23:13;;;;;;;13.40;12.00;;;;;;;;;;112531;210;196147;-39
2023/09/26 12:25:52;;;;;;;13.50;11.50;;;;;;;;;;112626;210;42098;-38
2023/09/26 12:28:29;;;;;;;13.10;11.70;;;;;;;;;;112610;210;38697;-38
2023/09/26 12:31:08;;;;;;;13.00;11.50;;;;;;;;;;112564;209;39759;-38
2023/09/26 12:33:43;;;;;;;13.40;11.60;;;;;;;;;;112608;210;42502;-38
2023/09/26 12:36:18;;;;;;;13.50;12.10;;;;;;;;;;112567;210;42286;-38
2023/09/26 12:38:56;;;;;;;13.10;11.70;;;;;;;;;;112598;210;38730;-38
2023/09/26 12:41:33;;;;;;;13.10;11.60;;;;;;;;;;112534;209;39860;-38
2023/09/26 12:44:07;;;;;;;13.00;11.60;;;;;;;;;;112567;210;43089;-38
2023/09/26 12:46:46;;;;;;;12.90;11.60;;;;;;;;;;112537;209;42450;-39
2023/09/26 12:49:21;;;;;;;13.40;12.00;;;;;;;;;;112613;210;38699;-39
2023/09/26 12:51:57;;;;;;;13.80;11.80;;;;;;;;;;112597;209;40636;-38
2023/09/26 12:54:32;;;;;;;13.20;11.80;;;;;;;;;;112589;210;42968;-38
2023/09/26 12:57:06;;;;;;;13.30;11.90;;;;;;;;;;112576;210;42298;-38
2023/09/26 12:59:40;;;;;;;13.00;11.70;;;;;;;;;;112605;210;38791;-38
2023/09/26 13:02:16;;;;;;;13.50;11.90;;;;;;;;;;112535;209;39355;-38
2023/09/26 13:04:55;;;;;;;13.60;11.40;;;;;;;;;;112577;209;42742;-38
2023/09/26 13:07:30;;;;;;;13.00;11.50;;;;;;;;;;112426;210;175629;-38
2023/09/26 13:10:05;;;;;;;13.30;11.30;;;;;;;;;;112541;210;40067;-37
2023/09/26 13:12:40;;;;;;;13.50;12.10;;;;;;;;;;112517;209;39640;-36
2023/09/26 13:15:14;;;;;;;12.90;11.40;;;;;;;;;;112584;210;43599;-35
2023/09/26 13:17:50;;;;;;;14.60;12.00;;;;;;;;;;112584;210;42031;-36
2023/09/26 13:20:24;;;;;;;12.80;11.50;;;;;;;;;;112588;210;38756;-38
2023/09/26 13:23:03;;;;;;;12.30;11.10;;;;;;;;;;112539;209;40783;-37
2023/09/26 13:25:39;;;;;;;13.10;11.30;;;;;;;;;;112571;210;43113;-36
2023/09/26 13:28:13;;;;;;;12.40;11.10;;;;;;;;;;112633;209;42398;-40
2023/09/26 13:30:48;;;;;;;12.70;11.30;;;;;;;;;;112559;209;38695;-36
2023/09/26 13:33:24;;;;;;;12.60;11.30;;;;;;;;;;112540;209;39610;-39
2023/09/26 13:35:58;;;;;;;13.00;11.60;;;;;;;;;;112593;209;42754;-41
2023/09/26 13:38:35;;;;;;;12.90;11.40;;;;;;;;;;112384;210;42109;-43
2023/09/26 13:41:09;;;;;;;12.30;11.00;;;;;;;;;;112577;210;38762;-37
2023/09/26 13:43:43;;;;;;;12.50;11.20;;;;;;;;;;112574;209;40666;-38
2023/09/26 13:46:18;;;;;;;13.40;11.50;;;;;;;;;;112476;210;44165;-38
2023/09/26 13:48:51;;;;;;;22.60;12.80;;;;;;;;;;112465;210;43572;-43
2023/09/26 13:51:25;;;;;;;17.20;12.10;;;;;;;;;;112581;210;38633;-42
2023/09/26 13:54:03;;;;;;;13.60;11.40;;;;;;;;;;112555;209;40839;-37
2023/09/26 13:56:36;;;;;;;12.20;10.90;;;;;;;;;;112602;210;43885;-37
2023/09/26 13:59:10;;;;;;;12.60;11.10;;;;;;;;;;112646;209;42110;-39
2023/09/26 14:01:44;;;;;;;13.70;11.10;;;;;;;;;;112647;210;40080;-37
2023/09/26 14:04:18;;;;;;;12.70;11.40;;;;;;;;;;112614;209;40645;-37
2023/09/26 14:06:52;;;;;;;12.90;11.40;;;;;;;;;;112679;209;44338;-37
2023/09/26 14:09:25;;;;;;;12.20;11.00;;;;;;;;;;112670;209;42121;-37
2023/09/26 14:11:58;;;;;;;13.20;11.20;;;;;;;;;;112709;210;38952;-37
2023/09/26 14:14:32;;;;;;;13.60;11.20;;;;;;;;;;112618;209;39565;-37
2023/09/26 14:17:06;;;;;;;12.30;11.00;;;;;;;;;;112523;210;43869;-37
2023/09/26 14:19:43;;;;;;;15.20;12.00;;;;;;;;;;112434;210;175575;-37
2023/09/26 14:22:16;;;;;;;14.40;12.30;;;;;;;;;;112516;209;39770;-37
2023/09/26 14:24:50;;;;;;;17.30;14.00;;;;;;;;;;112572;209;45379;-37
2023/09/26 14:27:26;;;;;;;14.70;13.10;;;;;;;;;;112500;210;42914;-37
2023/09/26 14:30:02;;;;;;;13.90;12.40;;;;;;;;;;112690;209;43390;-37
2023/09/26 14:32:36;;;;;;;13.20;11.60;;;;;;;;;;112667;210;39974;-37
2023/09/26 14:35:12;;;;;;;12.90;11.30;;;;;;;;;;112616;209;45373;-37
2023/09/26 14:37:46;;;;;;;12.90;11.50;;;;;;;;;;112662;209;42853;-37
2023/09/26 14:40:21;;;;;;;12.50;11.00;;;;;;;;;;112622;210;42128;-37
2023/09/26 14:42:58;;;;;;;13.50;11.40;;;;;;;;;;111825;209;908611;-37
2023/09/26 14:45:32;;;;;;;12.70;11.40;;;;;;;;;;112625;209;45286;-38
2023/09/26 14:48:17;;;;;;;12.50;11.20;;;;;;;;;;112581;210;42832;-38
2023/09/26 14:50:54;;;;;;;12.70;11.40;;;;;;;;;;112601;210;41979;-37
2023/09/26 14:53:31;;;;;;;12.40;10.50;;;;;;;;;;112556;209;40753;-38
2023/09/26 14:56:05;;;;;;;11.80;10.60;;;;;;;;;;112545;210;39552;-37
2023/09/26 14:58:39;;;;;;;11.80;10.70;;;;;;;;;;112553;210;42809;-37
2023/09/26 15:01:14;;;;;;;11.90;10.70;;;;;;;;;;112578;210;43776;-37
2023/09/26 15:03:48;;;;;;;11.80;10.60;;;;;;;;;;112544;209;38545;-38
2023/09/26 15:06:22;;;;;;;12.60;10.60;;;;;;;;;;112484;209;39327;-32
2023/09/26 15:08:56;;;;;;;12.30;10.90;;;;;;;;;;112566;210;43078;-32
2023/09/26 15:11:31;;;;;;;12.10;10.80;;;;;;;;;;112570;210;42297;-32
2023/09/26 15:14:10;;;;;;;11.60;10.40;;;;;;;;;;112542;209;38520;-32
2023/09/26 15:16:46;;;;;;;13.20;11.20;;;;;;;;;;112572;210;39871;-32
2023/09/26 15:19:20;;;;;;;12.20;10.90;;;;;;;;;;112555;210;42987;-33
2023/09/26 15:21:55;;;;;;;12.40;11.00;;;;;;;;;;112559;210;42431;-33
2023/09/26 15:24:29;;;;;;;11.90;10.60;;;;;;;;;;112524;209;39011;-33
2023/09/26 15:27:02;;;;;;;12.90;11.10;;;;;;;;;;112582;210;39741;-33